Time;durP1;ratioP1;P1;durP2;ratioP2;P2;SDS_P1;SDS_P2;PMS_P1;PMS_P2;Temp;Humidity;BMP_temperature;BMP_pressure;BME280_temperature;BME280_humidity;BME280_pressure;Samples;Min_cycle;Max_cycle;Signal;HPM_P1;HPM_P2
2023/06/03 00:02:02;;;;;;;7.68;2.50;;;11.60;99.90;;;;;;5081306;28;20346;-77
2023/06/03 00:04:29;;;;;;;8.77;2.75;;;11.60;99.90;;;;;;5083032;28;20403;-78
2023/06/03 00:06:58;;;;;;;9.20;2.42;;;11.50;99.90;;;;;;5094629;28;20620;-77
2023/06/03 00:09:24;;;;;;;4.47;2.33;;;11.50;99.90;;;;;;5076350;28;20061;-78
2023/06/03 00:11:50;;;;;;;4.85;2.30;;;11.50;99.90;;;;;;5082029;28;20067;-78
2023/06/03 00:14:17;;;;;;;6.13;2.17;;;11.50;99.90;;;;;;5079361;28;20036;-78
2023/06/03 00:16:49;;;;;;;4.88;2.47;;;11.40;99.90;;;;;;5061993;28;20048;-78
2023/06/03 00:19:18;;;;;;;5.18;2.72;;;11.40;99.90;;;;;;5078959;28;20053;-78
2023/06/03 00:21:49;;;;;;;5.60;2.40;;;11.30;99.90;;;;;;5080180;28;20047;-78
2023/06/03 00:24:22;;;;;;;7.72;2.20;;;11.40;99.90;;;;;;5065818;28;20081;-77
2023/06/03 00:26:52;;;;;;;4.45;2.25;;;11.30;99.90;;;;;;5083973;28;20044;-79
2023/06/03 00:29:20;;;;;;;4.82;2.33;;;11.30;99.90;;;;;;5085193;28;20132;-77
2023/06/03 00:31:47;;;;;;;5.43;2.33;;;11.30;99.90;;;;;;5078259;28;20040;-79
2023/06/03 00:34:13;;;;;;;6.47;2.40;;;11.30;99.90;;;;;;5071636;28;20500;-78
2023/06/03 00:36:39;;;;;;;5.38;2.63;;;11.20;99.90;;;;;;5082536;28;20048;-78
2023/06/03 00:39:05;;;;;;;4.93;2.30;;;11.20;99.90;;;;;;5081555;28;20055;-77
2023/06/03 00:41:30;;;;;;;3.97;1.95;;;11.20;99.90;;;;;;5082100;28;20036;-77
2023/06/03 00:43:56;;;;;;;5.97;2.53;;;11.20;99.90;;;;;;5085156;28;20044;-77
2023/06/03 00:46:22;;;;;;;8.60;2.42;;;11.10;99.90;;;;;;5073614;28;20047;-77
2023/06/03 00:48:48;;;;;;;5.63;2.40;;;11.10;99.90;;;;;;5084545;28;20579;-78
2023/06/03 00:51:18;;;;;;;3.78;2.28;;;11.10;99.90;;;;;;5078462;28;20055;-77
2023/06/03 00:53:45;;;;;;;4.28;2.88;;;11.10;99.90;;;;;;5081577;28;20391;-77
2023/06/03 00:56:15;;;;;;;5.35;2.30;;;11.10;99.90;;;;;;5079250;28;20074;-77
2023/06/03 00:58:41;;;;;;;8.10;2.40;;;11.10;99.90;;;;;;5100356;28;20048;-79
2023/06/03 01:01:07;;;;;;;4.20;2.20;;;11.00;99.90;;;;;;5079785;28;20060;-78
2023/06/03 01:03:32;;;;;;;5.53;2.30;;;11.00;99.90;;;;;;5086764;28;20032;-78
2023/06/03 01:06:21;;;;;;;5.32;2.50;;;11.00;99.90;;;;;;5101842;28;20126;-76
2023/06/03 01:08:56;;;;;;;5.20;2.50;;;11.00;99.90;;;;;;5081169;28;20100;-78
2023/06/03 01:11:31;;;;;;;4.32;2.22;;;11.00;99.90;;;;;;5101078;28;20461;-78
2023/06/03 01:14:08;;;;;;;6.05;2.90;;;10.90;99.90;;;;;;5087420;28;20063;-78
2023/06/03 01:16:40;;;;;;;5.88;2.28;;;10.90;99.90;;;;;;5103045;28;20550;-78
2023/06/03 01:19:14;;;;;;;7.90;2.58;;;10.90;99.90;;;;;;5102889;28;20559;-78
2023/06/03 01:21:44;;;;;;;8.93;2.38;;;10.90;99.90;;;;;;5088115;28;20563;-78
2023/06/03 01:24:19;;;;;;;4.28;2.30;;;10.80;99.90;;;;;;5102863;28;20436;-79
2023/06/03 01:26:47;;;;;;;5.65;2.33;;;10.80;99.90;;;;;;5103614;28;20047;-78
2023/06/03 01:29:13;;;;;;;6.32;2.47;;;10.80;99.90;;;;;;5079701;28;20383;-78
2023/06/03 01:31:39;;;;;;;6.68;2.15;;;10.70;99.90;;;;;;5102741;28;20088;-78
2023/06/03 01:34:05;;;;;;;5.68;2.63;;;10.70;99.90;;;;;;5102019;28;20036;-77
2023/06/03 01:36:31;;;;;;;5.47;2.15;;;10.70;99.90;;;;;;5064314;28;20032;-77
2023/06/03 01:38:57;;;;;;;6.03;2.45;;;10.60;99.90;;;;;;5068856;28;20036;-78
2023/06/03 01:41:25;;;;;;;5.45;2.50;;;10.60;99.90;;;;;;5099270;28;20055;-78
2023/06/03 01:43:51;;;;;;;3.65;2.20;;;10.60;99.90;;;;;;5080438;28;20050;-77
2023/06/03 01:46:17;;;;;;;6.10;2.35;;;10.60;99.90;;;;;;5066115;28;20039;-77
2023/06/03 01:48:43;;;;;;;6.60;2.33;;;10.50;99.90;;;;;;5084240;28;20067;-77
2023/06/03 01:51:08;;;;;;;5.55;2.42;;;10.50;99.90;;;;;;5097730;28;20036;-77
2023/06/03 01:53:34;;;;;;;4.18;2.40;;;10.50;99.90;;;;;;5083726;28;20482;-78
2023/06/03 01:56:00;;;;;;;5.13;2.47;;;10.50;99.90;;;;;;5085699;28;20047;-78
2023/06/03 01:58:26;;;;;;;7.43;2.40;;;10.40;99.90;;;;;;5085767;28;20529;-79
2023/06/03 02:00:51;;;;;;;6.78;2.45;;;10.40;99.90;;;;;;5085924;28;20036;-79
2023/06/03 02:03:17;;;;;;;4.03;2.15;;;10.40;99.90;;;;;;5107405;28;20039;-78
2023/06/03 02:05:43;;;;;;;4.70;2.53;;;10.40;99.90;;;;;;5087406;28;20047;-78
2023/06/03 02:08:08;;;;;;;7.07;2.55;;;10.50;99.90;;;;;;5083598;28;20053;-78
2023/06/03 02:10:34;;;;;;;5.05;1.95;;;10.50;99.90;;;;;;5100989;28;20418;-78
2023/06/03 02:13:00;;;;;;;4.65;2.10;;;10.50;99.90;;;;;;5103471;28;20047;-77
2023/06/03 02:15:26;;;;;;;4.47;2.22;;;10.50;99.90;;;;;;5064418;28;20056;-78
2023/06/03 02:17:51;;;;;;;4.65;2.35;;;10.50;99.90;;;;;;5098224;28;20071;-78
2023/06/03 02:20:17;;;;;;;6.13;1.92;;;10.50;99.90;;;;;;5107857;28;20387;-79
2023/06/03 02:22:43;;;;;;;4.75;2.40;;;10.60;99.90;;;;;;5071384;28;20089;-77
2023/06/03 02:25:09;;;;;;;5.15;2.30;;;10.50;99.90;;;;;;5086404;28;20501;-76
2023/06/03 02:27:35;;;;;;;8.18;2.42;;;10.60;99.90;;;;;;5093087;28;20126;-79
2023/06/03 02:30:01;;;;;;;5.10;2.10;;;10.60;99.90;;;;;;5099907;27;20033;-79
2023/06/03 02:32:26;;;;;;;6.00;1.90;;;10.60;99.90;;;;;;5088950;28;20050;-79
2023/06/03 02:34:53;;;;;;;4.82;1.90;;;10.60;99.90;;;;;;5075139;28;20048;-78
2023/06/03 02:37:19;;;;;;;3.80;2.00;;;10.60;99.90;;;;;;5103678;28;20181;-78
2023/06/03 02:39:48;;;;;;;4.78;2.30;;;10.60;99.90;;;;;;5103271;28;20131;-78
2023/06/03 02:42:13;;;;;;;4.05;2.08;;;10.50;99.90;;;;;;5101758;28;20047;-77
2023/06/03 02:44:39;;;;;;;4.05;2.10;;;10.50;99.90;;;;;;5073773;28;20529;-79
2023/06/03 02:47:05;;;;;;;5.85;2.10;;;10.50;99.90;;;;;;5102595;28;20419;-78
2023/06/03 02:49:31;;;;;;;4.88;1.92;;;10.50;99.90;;;;;;5102587;28;20048;-79
2023/06/03 02:51:58;;;;;;;3.78;1.90;;;10.50;99.90;;;;;;5108210;28;20044;-78
2023/06/03 02:54:24;;;;;;;3.65;2.10;;;10.40;99.90;;;;;;5105058;28;20096;-78
2023/06/03 02:56:50;;;;;;;4.15;2.38;;;10.40;99.90;;;;;;5103822;28;20130;-78
2023/06/03 02:59:18;;;;;;;5.53;2.08;;;10.40;99.90;;;;;;5086341;28;20059;-79
2023/06/03 03:01:44;;;;;;;4.05;1.95;;;10.30;99.90;;;;;;5072085;28;20050;-78
2023/06/03 03:04:09;;;;;;;4.50;1.77;;;10.30;99.90;;;;;;5084690;28;20056;-78
2023/06/03 03:06:40;;;;;;;4.13;1.70;;;10.30;99.90;;;;;;5090775;28;20048;-78
2023/06/03 03:09:06;;;;;;;4.20;2.50;;;10.20;99.90;;;;;;5072957;28;20038;-78
2023/06/03 03:11:31;;;;;;;5.28;2.15;;;10.20;99.90;;;;;;5071326;28;20058;-78
2023/06/03 03:13:58;;;;;;;5.15;1.80;;;10.20;99.90;;;;;;5107195;28;20518;-79
2023/06/03 03:16:24;;;;;;;4.55;2.30;;;10.20;99.90;;;;;;5098428;28;20040;-79
2023/06/03 03:18:51;;;;;;;7.18;2.00;;;10.20;99.90;;;;;;5069469;28;20035;-79
2023/06/03 03:21:16;;;;;;;4.25;2.20;;;10.20;99.90;;;;;;5089669;28;20044;-78
2023/06/03 03:23:42;;;;;;;7.82;3.17;;;10.20;99.90;;;;;;5070006;28;20089;-79
2023/06/03 03:26:08;;;;;;;3.40;1.73;;;10.20;99.90;;;;;;5073617;28;20047;-78
2023/06/03 03:28:35;;;;;;;3.30;2.00;;;10.20;99.90;;;;;;5101845;28;20036;-79
2023/06/03 03:31:01;;;;;;;3.80;1.77;;;10.20;99.90;;;;;;5061108;28;20040;-77
2023/06/03 03:33:27;;;;;;;4.28;2.08;;;10.20;99.90;;;;;;5079554;28;20119;-79
2023/06/03 03:35:52;;;;;;;3.65;1.90;;;10.20;99.90;;;;;;5089283;28;20074;-79
2023/06/03 03:38:19;;;;;;;3.70;2.17;;;10.30;99.90;;;;;;5102209;28;20077;-80
2023/06/03 03:40:45;;;;;;;5.93;1.95;;;10.30;99.90;;;;;;5084450;28;20498;-78
2023/06/03 03:43:18;;;;;;;4.25;1.80;;;10.30;99.90;;;;;;5095397;28;20097;-78
2023/06/03 03:45:44;;;;;;;4.85;1.90;;;10.30;99.90;;;;;;5093670;28;20141;-77
2023/06/03 03:48:13;;;;;;;4.10;1.85;;;10.30;99.90;;;;;;5088049;28;20554;-78
2023/06/03 03:50:52;;;;;;;4.18;1.55;;;10.30;99.90;;;;;;5069536;28;20040;-79
2023/06/03 03:53:21;;;;;;;5.57;1.83;;;10.30;99.90;;;;;;5092640;28;20050;-78
2023/06/03 03:55:51;;;;;;;4.53;1.60;;;10.30;99.90;;;;;;5106758;28;20243;-79
2023/06/03 03:58:27;;;;;;;3.50;1.67;;;10.40;99.90;;;;;;5085477;28;20047;-80
2023/06/03 04:00:59;;;;;;;2.78;1.70;;;10.40;99.90;;;;;;5080970;28;20067;-79
2023/06/03 04:03:25;;;;;;;6.30;2.25;;;10.40;99.90;;;;;;5096526;28;20054;-80
2023/06/03 04:05:51;;;;;;;3.90;1.70;;;10.30;99.90;;;;;;5107091;28;20055;-80
2023/06/03 04:08:38;;;;;;;5.47;2.05;;;10.40;99.90;;;;;;5090437;28;20418;-79
2023/06/03 04:11:05;;;;;;;4.95;2.05;;;10.40;99.90;;;;;;5104298;28;20040;-77
2023/06/03 04:13:40;;;;;;;4.90;1.95;;;10.40;99.90;;;;;;5107342;28;20035;-79
2023/06/03 04:16:22;;;;;;;3.60;1.77;;;10.50;99.90;;;;;;5104849;28;20490;-79
2023/06/03 04:18:48;;;;;;;5.72;2.33;;;10.60;99.90;;;;;;5105374;28;20258;-79
2023/06/03 04:21:18;;;;;;;4.60;2.20;;;10.60;99.90;;;;;;5083608;28;20300;-79
2023/06/03 04:23:45;;;;;;;5.38;1.95;;;10.70;99.90;;;;;;5099391;28;20039;-79
2023/06/03 04:26:17;;;;;;;6.03;2.10;;;10.80;99.90;;;;;;5085765;28;20039;-80
2023/06/03 04:28:43;;;;;;;3.83;2.00;;;10.80;99.90;;;;;;5105442;28;20055;-79
2023/06/03 04:31:08;;;;;;;4.57;1.92;;;10.70;99.90;;;;;;5101868;28;20047;-77
2023/06/03 04:33:34;;;;;;;4.10;2.00;;;10.60;99.90;;;;;;5104046;28;20044;-78
2023/06/03 04:35:59;;;;;;;5.70;1.92;;;10.50;99.90;;;;;;5076541;28;20383;-80
2023/06/03 04:38:26;;;;;;;4.60;1.75;;;10.40;99.90;;;;;;5089052;28;20075;-80
2023/06/03 04:40:53;;;;;;;3.25;1.63;;;10.40;99.90;;;;;;5103762;28;20040;-80
2023/06/03 04:43:18;;;;;;;6.10;1.92;;;10.30;99.90;;;;;;5082270;28;20126;-80
2023/06/03 04:45:49;;;;;;;3.42;1.85;;;10.30;99.90;;;;;;5069890;28;20122;-78
2023/06/03 04:48:22;;;;;;;5.22;1.90;;;10.20;99.90;;;;;;5084752;28;20082;-78
2023/06/03 04:50:49;;;;;;;4.45;2.13;;;10.20;99.90;;;;;;5086370;28;20043;-78
2023/06/03 04:53:15;;;;;;;4.68;1.90;;;10.20;99.90;;;;;;5078367;28;20044;-76
2023/06/03 04:55:44;;;;;;;4.88;1.95;;;10.20;99.90;;;;;;5087564;28;20047;-78
2023/06/03 04:58:11;;;;;;;4.35;1.73;;;10.20;99.90;;;;;;5107701;28;20127;-77
2023/06/03 05:00:37;;;;;;;4.95;2.15;;;10.30;99.90;;;;;;5100959;28;20517;-77
2023/06/03 05:03:08;;;;;;;4.13;1.90;;;10.40;99.90;;;;;;5100203;28;20047;-74
2023/06/03 05:05:35;;;;;;;3.50;1.80;;;10.60;99.90;;;;;;5089077;28;20039;-77
2023/06/03 05:08:01;;;;;;;4.32;2.25;;;10.70;99.90;;;;;;5092339;28;20040;-77
2023/06/03 05:10:27;;;;;;;5.18;1.77;;;10.90;99.90;;;;;;5086111;28;20118;-78
2023/06/03 05:12:53;;;;;;;4.18;1.73;;;11.10;99.90;;;;;;5102528;28;20515;-79
2023/06/03 05:15:19;;;;;;;4.32;1.90;;;11.20;99.90;;;;;;5063256;28;20037;-78
2023/06/03 05:17:45;;;;;;;6.18;2.10;;;11.40;99.90;;;;;;5104884;28;20052;-77
2023/06/03 05:20:11;;;;;;;6.93;2.75;;;11.50;99.90;;;;;;5106473;28;20426;-78
2023/06/03 05:22:37;;;;;;;3.60;1.77;;;11.70;99.90;;;;;;5105113;28;20036;-77
2023/06/03 05:25:06;;;;;;;4.03;1.88;;;11.90;99.90;;;;;;5103570;28;20545;-76
2023/06/03 05:27:32;;;;;;;8.35;2.22;;;12.00;99.90;;;;;;5106668;28;20071;-78
2023/06/03 05:29:58;;;;;;;4.45;1.73;;;12.10;99.90;;;;;;5087232;28;20109;-77
2023/06/03 05:32:23;;;;;;;4.25;1.88;;;12.30;99.90;;;;;;5103360;28;20082;-77
2023/06/03 05:34:49;;;;;;;3.88;1.55;;;12.40;99.90;;;;;;5088723;28;20179;-77
2023/06/03 05:37:18;;;;;;;4.07;1.80;;;12.60;99.90;;;;;;5105459;28;20040;-77
2023/06/03 05:39:44;;;;;;;5.05;1.83;;;12.70;99.90;;;;;;5108661;28;20032;-77
2023/06/03 05:42:09;;;;;;;3.80;1.60;;;12.80;99.90;;;;;;5092783;28;20459;-77
2023/06/03 05:44:35;;;;;;;5.50;1.90;;;13.00;99.90;;;;;;5103556;28;20047;-79
2023/06/03 05:47:04;;;;;;;4.25;1.70;;;13.10;99.90;;;;;;5089141;28;20046;-77
2023/06/03 05:49:30;;;;;;;5.28;2.25;;;13.20;99.90;;;;;;5105108;28;20082;-78
2023/06/03 05:51:55;;;;;;;3.08;1.58;;;13.40;99.90;;;;;;5102243;28;20511;-77
2023/06/03 05:54:21;;;;;;;4.55;1.80;;;13.50;99.90;;;;;;5110162;28;20051;-79
2023/06/03 05:56:46;;;;;;;3.08;1.42;;;13.60;99.90;;;;;;5086893;28;20088;-79
2023/06/03 05:59:12;;;;;;;3.38;1.63;;;13.80;99.90;;;;;;5094444;28;20043;-77
2023/06/03 06:01:38;;;;;;;3.25;1.90;;;13.90;99.90;;;;;;5099523;27;20070;-79
2023/06/03 06:04:03;;;;;;;6.40;2.15;;;14.10;99.90;;;;;;5108044;28;20055;-78
2023/06/03 06:06:29;;;;;;;3.25;1.67;;;14.20;99.90;;;;;;5111571;28;20051;-78
2023/06/03 06:08:55;;;;;;;2.78;1.50;;;14.30;99.90;;;;;;5092245;28;20040;-79
2023/06/03 06:11:20;;;;;;;5.70;1.70;;;14.50;99.90;;;;;;5109313;28;20048;-78
2023/06/03 06:13:46;;;;;;;6.03;1.75;;;14.60;99.90;;;;;;5102691;28;20394;-79
2023/06/03 06:16:12;;;;;;;3.28;1.70;;;14.70;99.90;;;;;;5098856;28;20070;-78
2023/06/03 06:18:37;;;;;;;3.53;1.33;;;14.90;99.90;;;;;;5091988;28;20049;-79
2023/06/03 06:21:03;;;;;;;2.95;1.35;;;15.00;99.90;;;;;;5104751;28;20090;-79
2023/06/03 06:23:29;;;;;;;4.70;1.30;;;15.20;99.90;;;;;;5092702;28;20474;-79
2023/06/03 06:25:55;;;;;;;6.63;1.70;;;15.30;99.90;;;;;;5088558;27;20044;-79
2023/06/03 06:28:26;;;;;;;3.33;1.35;;;15.30;99.90;;;;;;5089567;28;20044;-76
2023/06/03 06:30:54;;;;;;;4.15;1.75;;;15.50;99.90;;;;;;5084426;28;20032;-78
2023/06/03 06:33:20;;;;;;;4.05;1.63;;;15.70;99.90;;;;;;5101128;28;20071;-79
2023/06/03 06:35:47;;;;;;;6.38;1.70;;;15.80;99.90;;;;;;5107293;28;20051;-79
2023/06/03 06:38:13;;;;;;;6.10;1.65;;;16.00;99.90;;;;;;5087022;28;20119;-77
2023/06/03 06:40:40;;;;;;;3.85;1.55;;;16.10;99.90;;;;;;5106847;28;20387;-79
2023/06/03 06:43:07;;;;;;;5.18;1.40;;;16.10;99.90;;;;;;5110308;28;20044;-76
2023/06/03 06:45:36;;;;;;;4.32;1.70;;;16.20;99.90;;;;;;5075826;28;20071;-79
2023/06/03 06:48:07;;;;;;;2.95;1.30;;;16.40;99.90;;;;;;5105852;28;20038;-76
2023/06/03 06:50:50;;;;;;;3.60;1.73;;;16.20;99.90;;;;;;5102890;28;20043;-79
2023/06/03 06:53:19;;;;;;;5.53;1.40;;;16.00;99.90;;;;;;5088766;28;20059;-77
2023/06/03 06:56:07;;;;;;;2.13;1.02;;;15.70;99.90;;;;;;5108733;28;20538;-78
2023/06/03 06:58:38;;;;;;;3.08;1.33;;;15.40;99.90;;;;;;5085718;28;20100;-77
2023/06/03 07:01:05;;;;;;;4.45;2.03;;;15.30;99.90;;;;;;5074052;28;20362;-76
2023/06/03 07:03:32;;;;;;;3.65;1.58;;;15.10;99.90;;;;;;5098082;28;20055;-77
2023/06/03 07:05:58;;;;;;;2.80;1.25;;;14.90;99.90;;;;;;5064918;28;20059;-76
2023/06/03 07:08:24;;;;;;;5.20;1.48;;;14.90;99.90;;;;;;5105006;27;20082;-78
2023/06/03 07:10:50;;;;;;;3.22;1.77;;;14.80;99.90;;;;;;5101564;27;20468;-77
2023/06/03 07:13:16;;;;;;;3.50;1.40;;;14.70;99.90;;;;;;5102650;27;20048;-78
2023/06/03 07:15:43;;;;;;;3.10;1.40;;;14.70;99.90;;;;;;5085217;28;20100;-79
2023/06/03 07:18:12;;;;;;;2.25;1.13;;;14.70;99.90;;;;;;5087146;28;20482;-77
2023/06/03 07:20:48;;;;;;;5.78;1.58;;;14.60;99.90;;;;;;5102948;28;20048;-77
2023/06/03 07:23:24;;;;;;;3.22;1.55;;;14.60;99.90;;;;;;5080301;28;20043;-83
2023/06/03 07:25:53;;;;;;;5.70;1.42;;;14.60;99.90;;;;;;5071250;28;20135;-84
2023/06/03 07:28:29;;;;;;;2.97;1.50;;;14.70;99.90;;;;;;5089566;28;20071;-84
2023/06/03 07:30:58;;;;;;;3.00;1.50;;;14.90;99.90;;;;;;5102700;28;20043;-82
2023/06/03 07:33:34;;;;;;;3.72;1.70;;;15.30;99.90;;;;;;5070822;28;20380;-85
2023/06/03 07:36:02;;;;;;;6.78;1.45;;;15.70;99.90;;;;;;5104901;28;20036;-84
2023/06/03 07:38:37;;;;;;;4.95;1.58;;;16.10;99.90;;;;;;5089338;28;20502;-84
2023/06/03 07:41:07;;;;;;;3.30;1.65;;;16.50;99.90;;;;;;5101897;28;20039;-83
2023/06/03 07:43:38;;;;;;;4.03;1.30;;;16.70;99.90;;;;;;5100164;28;20119;-83
2023/06/03 07:46:05;;;;;;;3.05;1.48;;;16.90;99.90;;;;;;5098513;27;20406;-83
2023/06/03 07:48:33;;;;;;;7.05;1.95;;;17.20;99.90;;;;;;5088204;28;20072;-83
2023/06/03 07:51:01;;;;;;;2.40;1.30;;;17.40;99.90;;;;;;5102320;28;20050;-85
2023/06/03 07:53:30;;;;;;;4.32;1.50;;;17.50;99.90;;;;;;5083748;28;20039;-85
2023/06/03 07:55:57;;;;;;;3.58;1.70;;;17.60;99.90;;;;;;5085107;27;20751;-85
2023/06/03 07:58:25;;;;;;;4.47;1.70;;;17.70;99.90;;;;;;5098507;28;20118;-83
2023/06/03 08:00:54;;;;;;;3.38;1.20;;;17.80;99.90;;;;;;5083442;28;20047;-83
2023/06/03 08:03:25;;;;;;;3.28;1.15;;;17.80;99.90;;;;;;5088350;28;20237;-85
2023/06/03 08:05:51;;;;;;;3.58;1.80;;;17.90;99.90;;;;;;5106207;28;20040;-86
2023/06/03 08:08:23;;;;;;;2.95;1.48;;;18.00;99.90;;;;;;5102012;28;20048;-83
2023/06/03 08:10:49;;;;;;;4.03;1.83;;;18.20;99.90;;;;;;5099879;28;20035;-83
2023/06/03 08:13:18;;;;;;;3.55;1.30;;;18.30;99.90;;;;;;5088151;28;20308;-86
2023/06/03 08:15:43;;;;;;;2.88;1.30;;;18.40;99.90;;;;;;5103211;28;20510;-84
2023/06/03 08:18:11;;;;;;;31.73;4.28;;;18.50;99.90;;;;;;5061926;28;20051;-83
2023/06/03 08:20:37;;;;;;;9.82;1.85;;;18.60;99.90;;;;;;5066938;28;20128;-81
2023/06/03 08:23:04;;;;;;;27.40;4.20;;;18.60;99.90;;;;;;5087441;28;20044;-81
2023/06/03 08:25:30;;;;;;;50.38;7.57;;;18.80;99.90;;;;;;5101867;28;20494;-80
2023/06/03 08:27:56;;;;;;;2.78;1.30;;;18.80;99.90;;;;;;5082898;28;20457;-83
2023/06/03 08:30:23;;;;;;;9.23;2.28;;;18.90;99.90;;;;;;5061638;27;20100;-85
2023/06/03 08:32:50;;;;;;;6.78;1.40;;;19.00;99.90;;;;;;5082216;28;20410;-85
2023/06/03 08:35:20;;;;;;;2.75;1.15;;;18.90;99.90;;;;;;5096972;28;20449;-83
2023/06/03 08:37:49;;;;;;;3.17;1.13;;;19.10;99.90;;;;;;5102020;28;20049;-82
2023/06/03 08:40:21;;;;;;;6.50;1.90;;;19.30;99.90;;;;;;5097189;28;20299;-80
2023/06/03 08:42:48;;;;;;;4.47;2.13;;;19.30;99.90;;;;;;5101426;28;20513;-84
2023/06/03 08:45:15;;;;;;;2.80;1.20;;;19.40;99.90;;;;;;5100448;28;20036;-81
2023/06/03 08:47:44;;;;;;;3.40;1.40;;;19.60;99.90;;;;;;5097991;28;20051;-85
2023/06/03 08:50:10;;;;;;;3.05;1.20;;;19.60;99.90;;;;;;5100319;28;20100;-80
2023/06/03 08:52:39;;;;;;;3.72;1.42;;;19.60;99.90;;;;;;5101219;28;20050;-80
2023/06/03 08:55:11;;;;;;;3.25;1.33;;;19.60;99.90;;;;;;5097816;28;20154;-81
2023/06/03 08:57:59;;;;;;;5.32;1.40;;;19.60;99.90;;;;;;5097529;28;20035;-73
2023/06/03 09:00:26;;;;;;;2.67;1.40;;;19.70;99.90;;;;;;5094104;28;20043;-82
2023/06/03 09:02:52;;;;;;;4.50;1.30;;;19.80;99.90;;;;;;5070612;28;20227;-82
2023/06/03 09:05:20;;;;;;;6.22;1.33;;;19.80;99.90;;;;;;5076700;28;20201;-83
2023/06/03 09:07:50;;;;;;;5.63;1.40;;;19.80;99.90;;;;;;5087151;28;20159;-83
2023/06/03 09:10:22;;;;;;;5.90;1.58;;;19.90;99.90;;;;;;5086752;28;20499;-83
2023/06/03 09:12:49;;;;;;;3.95;1.30;;;20.10;99.90;;;;;;5090802;28;20104;-84
2023/06/03 09:15:15;;;;;;;2.65;1.15;;;20.10;99.70;;;;;;5087526;28;20127;-82
2023/06/03 09:17:41;;;;;;;2.13;1.10;;;20.20;99.30;;;;;;5089262;28;20035;-83
2023/06/03 09:20:08;;;;;;;2.22;0.90;;;20.30;99.40;;;;;;5106226;28;20035;-85
2023/06/03 09:22:35;;;;;;;2.03;0.82;;;20.20;99.90;;;;;;5071102;28;20051;-80
2023/06/03 09:25:02;;;;;;;2.72;1.20;;;20.30;99.60;;;;;;5109860;28;20103;-83
2023/06/03 09:27:27;;;;;;;7.57;1.92;;;20.30;98.20;;;;;;5069602;28;20509;-80
2023/06/03 09:29:54;;;;;;;2.42;0.93;;;20.30;98.30;;;;;;5088342;28;20035;-77
2023/06/03 09:32:21;;;;;;;4.50;1.10;;;20.40;98.60;;;;;;5106417;27;20130;-85
2023/06/03 09:34:46;;;;;;;2.20;0.95;;;20.50;98.30;;;;;;5086429;28;20375;-81
2023/06/03 09:37:12;;;;;;;3.35;1.05;;;20.70;98.20;;;;;;5100445;28;20046;-78
2023/06/03 09:39:38;;;;;;;2.08;1.15;;;20.70;98.40;;;;;;5068200;28;20065;-78
2023/06/03 09:42:04;;;;;;;3.75;1.00;;;20.80;97.90;;;;;;5099601;27;20425;-79
2023/06/03 09:44:46;;;;;;;2.30;1.08;;;20.90;98.10;;;;;;5107672;28;20062;-79
2023/06/03 09:47:18;;;;;;;2.85;1.10;;;21.00;97.70;;;;;;5108917;27;20379;-78
2023/06/03 09:50:03;;;;;;;3.35;0.95;;;21.10;96.40;;;;;;5101815;28;20074;-77
2023/06/03 09:52:36;;;;;;;2.88;1.00;;;21.00;96.60;;;;;;5102148;28;20043;-77
2023/06/03 09:55:09;;;;;;;3.88;1.27;;;21.10;97.30;;;;;;5086561;28;20044;-77
2023/06/03 09:57:36;;;;;;;4.20;1.15;;;21.10;96.70;;;;;;5074852;28;20039;-79
2023/06/03 10:00:12;;;;;;;3.13;1.10;;;21.10;95.50;;;;;;5072928;28;20486;-78
2023/06/03 10:02:43;;;;;;;1.75;0.93;;;21.20;97.20;;;;;;5067817;28;20043;-77
2023/06/03 10:05:30;;;;;;;2.55;1.10;;;21.30;96.90;;;;;;5090931;28;20418;-77
2023/06/03 10:07:57;;;;;;;3.22;1.05;;;21.30;95.90;;;;;;5106672;28;20055;-77
2023/06/03 10:10:23;;;;;;;4.80;1.30;;;21.30;96.20;;;;;;5089718;28;22203;-78
2023/06/03 10:12:49;;;;;;;2.88;1.15;;;21.30;96.40;;;;;;5098337;28;20055;-81
2023/06/03 10:15:39;;;;;;;2.35;1.10;;;21.40;96.90;;;;;;5070098;28;20079;-79
2023/06/03 10:18:06;;;;;;;2.72;1.17;;;21.50;96.30;;;;;;5099650;28;20048;-80
2023/06/03 10:20:40;;;;;;;4.07;1.20;;;21.50;96.60;;;;;;5080195;28;20044;-79
2023/06/03 10:23:09;;;;;;;3.28;1.23;;;21.50;96.40;;;;;;5082692;28;20043;-81
2023/06/03 10:25:43;;;;;;;3.67;1.33;;;21.40;95.10;;;;;;5083664;28;20036;-78
2023/06/03 10:28:11;;;;;;;3.33;1.20;;;21.60;96.40;;;;;;5079180;28;20402;-77
2023/06/03 10:30:37;;;;;;;4.32;0.98;;;21.70;96.30;;;;;;5081896;28;20107;-81
2023/06/03 10:33:04;;;;;;;3.25;0.90;;;21.80;96.10;;;;;;5088343;28;20047;-80
2023/06/03 10:35:34;;;;;;;3.40;1.38;;;21.80;96.00;;;;;;5105535;28;20122;-79
2023/06/03 10:38:02;;;;;;;3.58;1.00;;;21.80;96.40;;;;;;5102374;28;20487;-79
2023/06/03 10:40:28;;;;;;;2.53;1.20;;;21.70;95.60;;;;;;5076204;28;20467;-78
2023/06/03 10:42:55;;;;;;;6.15;1.30;;;21.60;96.10;;;;;;5101117;28;20194;-83
2023/06/03 10:45:22;;;;;;;4.53;1.40;;;21.50;96.80;;;;;;5099251;28;20044;-79
2023/06/03 10:47:50;;;;;;;3.55;1.40;;;21.60;96.70;;;;;;5101887;28;20577;-80
2023/06/03 10:50:34;;;;;;;3.85;1.38;;;21.60;96.20;;;;;;5082519;28;20455;-80
2023/06/03 10:53:11;;;;;;;2.85;1.20;;;21.50;96.10;;;;;;5105155;28;20040;-78
2023/06/03 10:56:01;;;;;;;3.10;1.30;;;21.60;96.70;;;;;;5100056;28;20568;-76
2023/06/03 10:58:28;;;;;;;2.75;1.15;;;21.60;96.30;;;;;;5081600;28;20127;-79
2023/06/03 11:00:59;;;;;;;4.45;1.00;;;21.70;96.40;;;;;;5078371;28;20065;-77
2023/06/03 11:03:27;;;;;;;3.63;1.10;;;21.70;96.90;;;;;;5099564;27;20565;-79
2023/06/03 11:06:13;;;;;;;2.22;1.00;;;21.90;97.20;;;;;;5105102;28;20078;-77
2023/06/03 11:08:59;;;;;;;2.53;1.23;;;21.80;96.90;;;;;;5104606;28;20044;-79
2023/06/03 11:11:40;;;;;;;6.35;1.35;;;21.90;96.70;;;;;;5103136;28;20048;-75
2023/06/03 11:14:10;;;;;;;2.90;0.90;;;21.90;96.70;;;;;;5086551;28;20040;-77
2023/06/03 11:16:57;;;;;;;2.40;1.10;;;21.80;97.40;;;;;;5074746;28;20048;-78
2023/06/03 11:19:33;;;;;;;2.17;0.90;;;21.70;96.00;;;;;;5081460;28;20552;-78
2023/06/03 11:22:04;;;;;;;3.88;1.40;;;21.80;96.60;;;;;;5085914;28;20043;-77
2023/06/03 11:24:39;;;;;;;2.70;1.10;;;21.80;96.00;;;;;;5105386;28;20047;-78
2023/06/03 11:27:14;;;;;;;2.83;1.13;;;21.90;96.20;;;;;;5094890;27;20388;-75
2023/06/03 11:29:51;;;;;;;2.92;1.15;;;22.00;96.70;;;;;;5100617;28;20096;-75
2023/06/03 11:32:35;;;;;;;3.92;1.17;;;22.10;97.10;;;;;;5100889;27;20043;-75
2023/06/03 11:35:04;;;;;;;3.05;1.20;;;22.20;95.40;;;;;;5105544;28;20049;-74
2023/06/03 11:37:48;;;;;;;3.40;1.05;;;22.20;95.30;;;;;;5098858;28;20127;-74
2023/06/03 11:40:19;;;;;;;5.60;1.10;;;22.30;96.30;;;;;;5083447;28;20281;-75
2023/06/03 11:42:50;;;;;;;2.45;1.10;;;22.20;95.80;;;;;;5099500;28;20048;-74
2023/06/03 11:45:17;;;;;;;3.92;1.10;;;22.20;96.10;;;;;;5087653;28;20052;-74
2023/06/03 11:47:56;;;;;;;4.40;1.20;;;22.20;95.80;;;;;;5086309;28;20036;-74
2023/06/03 11:50:30;;;;;;;2.63;1.10;;;22.20;95.70;;;;;;5103259;28;20466;-73
2023/06/03 11:52:55;;;;;;;2.05;0.90;;;22.10;95.70;;;;;;5103110;28;20262;-74
2023/06/03 11:55:34;;;;;;;2.97;1.48;;;22.10;96.10;;;;;;5101346;28;20203;-73
2023/06/03 11:58:14;;;;;;;2.95;1.20;;;22.00;95.90;;;;;;5084680;28;20054;-74
2023/06/03 12:00:40;;;;;;;2.03;0.93;;;22.20;96.50;;;;;;5099530;28;20036;-74
2023/06/03 12:03:13;;;;;;;3.15;1.20;;;22.30;96.70;;;;;;5099210;28;20392;-76
2023/06/03 12:05:51;;;;;;;;;;;22.40;96.60;;;;;;5080731;28;20506;-76
2023/06/03 12:08:17;;;;;;;3.85;1.10;;;22.20;95.10;;;;;;5085401;28;20012;-76
2023/06/03 12:10:43;;;;;;;2.47;1.20;;;22.20;95.40;;;;;;5088932;28;20055;-77
2023/06/03 12:13:09;;;;;;;2.35;1.08;;;22.10;95.70;;;;;;5101584;28;20317;-75
2023/06/03 12:15:36;;;;;;;2.58;1.10;;;22.10;95.80;;;;;;5084576;28;20050;-77
2023/06/03 12:18:05;;;;;;;3.53;1.45;;;22.10;96.50;;;;;;5084765;28;20108;-75
2023/06/03 12:20:30;;;;;;;2.45;1.00;;;22.10;95.90;;;;;;5099921;28;20123;-73
2023/06/03 12:22:59;;;;;;;4.47;1.08;;;22.20;96.10;;;;;;5103558;28;20118;-75
2023/06/03 12:25:25;;;;;;;3.13;1.00;;;22.10;95.30;;;;;;5099609;28;20044;-74
2023/06/03 12:27:51;;;;;;;3.05;1.00;;;22.10;95.60;;;;;;5103399;28;20043;-73
2023/06/03 12:30:29;;;;;;;5.53;0.90;;;22.10;96.60;;;;;;5096018;28;20086;-74
2023/06/03 12:32:57;;;;;;;2.15;0.90;;;22.20;95.90;;;;;;5082022;28;20040;-73
2023/06/03 12:35:27;;;;;;;2.92;1.00;;;22.10;96.00;;;;;;5064037;28;20036;-74
2023/06/03 12:38:23;;;;;;;2.13;1.00;;;22.00;94.80;;;;;;5078094;28;20521;-75
2023/06/03 12:40:49;;;;;;;4.47;1.08;;;22.00;94.80;;;;;;5073778;28;20035;-75
2023/06/03 12:43:21;;;;;;;3.67;0.98;;;21.80;95.30;;;;;;5084666;28;20047;-74
2023/06/03 12:45:50;;;;;;;3.25;1.30;;;21.80;94.90;;;;;;5065114;28;20047;-76
2023/06/03 12:48:31;;;;;;;1.75;0.90;;;21.80;96.00;;;;;;5099687;28;20127;-75
2023/06/03 12:50:59;;;;;;;2.95;1.25;;;21.90;95.40;;;;;;5089014;28;20046;-75
2023/06/03 12:53:25;;;;;;;2.85;1.02;;;22.00;95.60;;;;;;5107934;28;20048;-81
2023/06/03 12:55:51;;;;;;;2.17;0.93;;;21.90;95.50;;;;;;5066730;28;20503;-80
2023/06/03 12:58:16;;;;;;;4.22;1.02;;;22.00;95.40;;;;;;5088670;28;20036;-81